sensor_id;sensor_type;location;lat;lon;timestamp;P1;durP1;ratioP1;P2;durP2;ratioP2
4808;SDS011;2418;49.930;8.606;2022-09-20T00:01:58;6.07;;;3.50;;
4808;SDS011;2418;49.930;8.606;2022-09-20T00:04:24;9.00;;;3.83;;
4808;SDS011;2418;49.930;8.606;2022-09-20T00:06:50;7.10;;;3.30;;
4808;SDS011;2418;49.930;8.606;2022-09-20T00:09:16;4.90;;;3.40;;
4808;SDS011;2418;49.930;8.606;2022-09-20T00:11:41;8.18;;;3.17;;
4808;SDS011;2418;49.930;8.606;2022-09-20T00:14:09;8.93;;;3.40;;
4808;SDS011;2418;49.930;8.606;2022-09-20T00:16:36;3.60;;;2.83;;
4808;SDS011;2418;49.930;8.606;2022-09-20T00:19:03;7.45;;;2.95;;
4808;SDS011;2418;49.930;8.606;2022-09-20T00:21:30;11.10;;;2.90;;
4808;SDS011;2418;49.930;8.606;2022-09-20T00:23:56;6.70;;;2.20;;
4808;SDS011;2418;49.930;8.606;2022-09-20T00:26:23;2.85;;;2.35;;
4808;SDS011;2418;49.930;8.606;2022-09-20T00:28:49;6.40;;;2.30;;
4808;SDS011;2418;49.930;8.606;2022-09-20T00:31:16;9.07;;;2.33;;
4808;SDS011;2418;49.930;8.606;2022-09-20T00:33:42;4.90;;;3.25;;
4808;SDS011;2418;49.930;8.606;2022-09-20T00:36:27;6.60;;;2.50;;
4808;SDS011;2418;49.930;8.606;2022-09-20T00:38:54;5.88;;;2.50;;
4808;SDS011;2418;49.930;8.606;2022-09-20T00:41:20;5.53;;;2.72;;
4808;SDS011;2418;49.930;8.606;2022-09-20T00:43:46;6.43;;;3.10;;
4808;SDS011;2418;49.930;8.606;2022-09-20T00:48:41;2.80;;;2.60;;
4808;SDS011;2418;49.930;8.606;2022-09-20T00:51:08;5.30;;;2.78;;
4808;SDS011;2418;49.930;8.606;2022-09-20T00:53:41;4.38;;;2.80;;
4808;SDS011;2418;49.930;8.606;2022-09-20T00:56:12;11.38;;;2.67;;
4808;SDS011;2418;49.930;8.606;2022-09-20T00:58:41;3.33;;;2.72;;
4808;SDS011;2418;49.930;8.606;2022-09-20T01:01:09;8.73;;;2.92;;
4808;SDS011;2418;49.930;8.606;2022-09-20T01:03:37;3.13;;;2.90;;
4808;SDS011;2418;49.930;8.606;2022-09-20T01:06:06;5.15;;;2.53;;
4808;SDS011;2418;49.930;8.606;2022-09-20T01:08:33;7.20;;;3.30;;
4808;SDS011;2418;49.930;8.606;2022-09-20T01:11:00;5.43;;;3.00;;
4808;SDS011;2418;49.930;8.606;2022-09-20T01:13:26;6.10;;;2.80;;
4808;SDS011;2418;49.930;8.606;2022-09-20T01:15:52;7.47;;;3.50;;
4808;SDS011;2418;49.930;8.606;2022-09-20T01:18:18;8.20;;;3.33;;
4808;SDS011;2418;49.930;8.606;2022-09-20T01:20:46;10.05;;;3.75;;
4808;SDS011;2418;49.930;8.606;2022-09-20T01:28:26;4.10;;;3.65;;
4808;SDS011;2418;49.930;8.606;2022-09-20T01:31:07;5.32;;;3.13;;
4808;SDS011;2418;49.930;8.606;2022-09-20T01:33:39;8.13;;;3.47;;
4808;SDS011;2418;49.930;8.606;2022-09-20T01:36:06;5.88;;;3.30;;
4808;SDS011;2418;49.930;8.606;2022-09-20T01:46:49;6.53;;;4.20;;
4808;SDS011;2418;49.930;8.606;2022-09-20T01:52:00;9.48;;;3.40;;
4808;SDS011;2418;49.930;8.606;2022-09-20T01:54:50;12.95;;;4.20;;
4808;SDS011;2418;49.930;8.606;2022-09-20T01:59:54;10.95;;;3.42;;
4808;SDS011;2418;49.930;8.606;2022-09-20T02:10:30;7.38;;;3.50;;
4808;SDS011;2418;49.930;8.606;2022-09-20T02:13:01;6.55;;;3.33;;
4808;SDS011;2418;49.930;8.606;2022-09-20T02:15:33;8.95;;;3.90;;
4808;SDS011;2418;49.930;8.606;2022-09-20T02:20:31;10.90;;;3.83;;
4808;SDS011;2418;49.930;8.606;2022-09-20T02:25:45;8.17;;;3.27;;
4808;SDS011;2418;49.930;8.606;2022-09-20T02:33:32;15.90;;;4.05;;
4808;SDS011;2418;49.930;8.606;2022-09-20T02:44:35;13.85;;;3.75;;
4808;SDS011;2418;49.930;8.606;2022-09-20T02:52:41;13.93;;;4.55;;
4808;SDS011;2418;49.930;8.606;2022-09-20T02:55:12;8.30;;;4.70;;
4808;SDS011;2418;49.930;8.606;2022-09-20T02:57:49;21.25;;;5.60;;
4808;SDS011;2418;49.930;8.606;2022-09-20T03:00:22;9.18;;;4.60;;
4808;SDS011;2418;49.930;8.606;2022-09-20T03:02:58;8.70;;;4.93;;
4808;SDS011;2418;49.930;8.606;2022-09-20T03:05:29;12.00;;;4.90;;
4808;SDS011;2418;49.930;8.606;2022-09-20T03:13:14;15.75;;;5.78;;
4808;SDS011;2418;49.930;8.606;2022-09-20T03:21:39;9.70;;;6.00;;
4808;SDS011;2418;49.930;8.606;2022-09-20T03:29:24;10.45;;;6.32;;
4808;SDS011;2418;49.930;8.606;2022-09-20T03:34:36;15.43;;;6.72;;
4808;SDS011;2418;49.930;8.606;2022-09-20T03:50:01;16.70;;;8.02;;
4808;SDS011;2418;49.930;8.606;2022-09-20T03:52:35;11.30;;;6.70;;
4808;SDS011;2418;49.930;8.606;2022-09-20T04:10:52;17.80;;;7.32;;
4808;SDS011;2418;49.930;8.606;2022-09-20T04:24:03;15.13;;;8.33;;
4808;SDS011;2418;49.930;8.606;2022-09-20T04:26:32;15.93;;;7.45;;
4808;SDS011;2418;49.930;8.606;2022-09-20T04:31:46;16.85;;;7.47;;
4808;SDS011;2418;49.930;8.606;2022-09-20T04:34:30;14.05;;;7.20;;
4808;SDS011;2418;49.930;8.606;2022-09-20T04:37:22;14.18;;;8.02;;
4808;SDS011;2418;49.930;8.606;2022-09-20T04:39:54;25.95;;;8.20;;
4808;SDS011;2418;49.930;8.606;2022-09-20T04:56:15;20.88;;;8.68;;
4808;SDS011;2418;49.930;8.606;2022-09-20T05:21:31;16.67;;;8.10;;
4808;SDS011;2418;49.930;8.606;2022-09-20T05:29:18;21.90;;;9.18;;
4808;SDS011;2418;49.930;8.606;2022-09-20T05:37:32;18.60;;;9.52;;
4808;SDS011;2418;49.930;8.606;2022-09-20T05:40:05;23.45;;;8.63;;
4808;SDS011;2418;49.930;8.606;2022-09-20T05:42:39;27.42;;;8.73;;
4808;SDS011;2418;49.930;8.606;2022-09-20T05:47:58;17.38;;;9.15;;
4808;SDS011;2418;49.930;8.606;2022-09-20T05:50:33;15.67;;;7.93;;
4808;SDS011;2418;49.930;8.606;2022-09-20T05:53:09;14.55;;;8.48;;
4808;SDS011;2418;49.930;8.606;2022-09-20T06:01:20;21.47;;;9.37;;
4808;SDS011;2418;49.930;8.606;2022-09-20T06:06:44;18.97;;;8.47;;
4808;SDS011;2418;49.930;8.606;2022-09-20T06:19:44;15.77;;;8.30;;
4808;SDS011;2418;49.930;8.606;2022-09-20T06:22:13;13.60;;;7.77;;
4808;SDS011;2418;49.930;8.606;2022-09-20T06:27:12;10.48;;;7.28;;
4808;SDS011;2418;49.930;8.606;2022-09-20T06:29:39;12.43;;;7.45;;
4808;SDS011;2418;49.930;8.606;2022-09-20T06:32:07;9.77;;;7.57;;
4808;SDS011;2418;49.930;8.606;2022-09-20T06:34:33;14.20;;;7.37;;
4808;SDS011;2418;49.930;8.606;2022-09-20T06:37:14;14.32;;;7.60;;
4808;SDS011;2418;49.930;8.606;2022-09-20T06:43:09;16.90;;;7.33;;
4808;SDS011;2418;49.930;8.606;2022-09-20T06:45:38;16.02;;;6.90;;
4808;SDS011;2418;49.930;8.606;2022-09-20T06:48:05;17.77;;;7.35;;
4808;SDS011;2418;49.930;8.606;2022-09-20T06:50:33;11.02;;;6.85;;
4808;SDS011;2418;49.930;8.606;2022-09-20T06:53:00;11.25;;;6.97;;
4808;SDS011;2418;49.930;8.606;2022-09-20T06:55:28;15.37;;;7.67;;
4808;SDS011;2418;49.930;8.606;2022-09-20T06:57:55;14.57;;;6.63;;
4808;SDS011;2418;49.930;8.606;2022-09-20T07:00:21;12.85;;;7.00;;
4808;SDS011;2418;49.930;8.606;2022-09-20T07:02:47;10.48;;;7.47;;
4808;SDS011;2418;49.930;8.606;2022-09-20T07:05:13;10.73;;;6.70;;
4808;SDS011;2418;49.930;8.606;2022-09-20T07:07:40;6.90;;;5.97;;
4808;SDS011;2418;49.930;8.606;2022-09-20T07:10:07;10.02;;;6.15;;
4808;SDS011;2418;49.930;8.606;2022-09-20T07:12:37;20.08;;;6.05;;
4808;SDS011;2418;49.930;8.606;2022-09-20T07:15:04;7.85;;;5.95;;
4808;SDS011;2418;49.930;8.606;2022-09-20T07:17:30;7.70;;;5.30;;
4808;SDS011;2418;49.930;8.606;2022-09-20T07:19:57;12.57;;;5.17;;
4808;SDS011;2418;49.930;8.606;2022-09-20T07:22:24;7.97;;;5.53;;
4808;SDS011;2418;49.930;8.606;2022-09-20T07:24:49;11.20;;;5.22;;
4808;SDS011;2418;49.930;8.606;2022-09-20T07:27:15;7.67;;;5.67;;
4808;SDS011;2418;49.930;8.606;2022-09-20T07:29:42;7.25;;;5.70;;
4808;SDS011;2418;49.930;8.606;2022-09-20T07:32:08;12.38;;;5.72;;
4808;SDS011;2418;49.930;8.606;2022-09-20T07:34:34;12.75;;;6.20;;
4808;SDS011;2418;49.930;8.606;2022-09-20T07:37:00;10.15;;;5.45;;
4808;SDS011;2418;49.930;8.606;2022-09-20T07:39:26;8.13;;;5.13;;
4808;SDS011;2418;49.930;8.606;2022-09-20T07:41:52;9.57;;;5.10;;
4808;SDS011;2418;49.930;8.606;2022-09-20T07:44:18;7.10;;;5.60;;
4808;SDS011;2418;49.930;8.606;2022-09-20T07:46:52;11.77;;;5.77;;
4808;SDS011;2418;49.930;8.606;2022-09-20T07:49:19;15.15;;;5.63;;
4808;SDS011;2418;49.930;8.606;2022-09-20T07:51:46;10.85;;;5.63;;
4808;SDS011;2418;49.930;8.606;2022-09-20T07:54:12;8.85;;;6.38;;
4808;SDS011;2418;49.930;8.606;2022-09-20T07:56:38;10.90;;;6.45;;
4808;SDS011;2418;49.930;8.606;2022-09-20T07:59:04;11.33;;;7.13;;
4808;SDS011;2418;49.930;8.606;2022-09-20T08:01:30;10.13;;;6.00;;
4808;SDS011;2418;49.930;8.606;2022-09-20T08:03:56;10.15;;;6.50;;
4808;SDS011;2418;49.930;8.606;2022-09-20T08:06:22;7.72;;;6.43;;
4808;SDS011;2418;49.930;8.606;2022-09-20T08:08:48;12.90;;;5.70;;
4808;SDS011;2418;49.930;8.606;2022-09-20T08:11:18;14.45;;;6.40;;
4808;SDS011;2418;49.930;8.606;2022-09-20T08:13:45;9.63;;;5.10;;
4808;SDS011;2418;49.930;8.606;2022-09-20T08:16:12;10.10;;;5.30;;
4808;SDS011;2418;49.930;8.606;2022-09-20T08:18:38;11.48;;;5.30;;
4808;SDS011;2418;49.930;8.606;2022-09-20T08:21:05;10.02;;;5.47;;
4808;SDS011;2418;49.930;8.606;2022-09-20T08:23:39;8.73;;;4.93;;
4808;SDS011;2418;49.930;8.606;2022-09-20T08:26:07;7.43;;;5.00;;
4808;SDS011;2418;49.930;8.606;2022-09-20T08:28:33;6.20;;;4.43;;
4808;SDS011;2418;49.930;8.606;2022-09-20T08:31:03;8.38;;;4.18;;
4808;SDS011;2418;49.930;8.606;2022-09-20T08:33:30;10.20;;;4.10;;
4808;SDS011;2418;49.930;8.606;2022-09-20T08:35:57;6.90;;;4.00;;
4808;SDS011;2418;49.930;8.606;2022-09-20T08:38:23;7.00;;;3.20;;
4808;SDS011;2418;49.930;8.606;2022-09-20T08:40:53;4.70;;;3.65;;
4808;SDS011;2418;49.930;8.606;2022-09-20T08:43:21;6.00;;;3.70;;
4808;SDS011;2418;49.930;8.606;2022-09-20T08:45:48;13.43;;;4.10;;
4808;SDS011;2418;49.930;8.606;2022-09-20T08:48:15;4.55;;;3.80;;
4808;SDS011;2418;49.930;8.606;2022-09-20T08:50:41;6.72;;;3.42;;
4808;SDS011;2418;49.930;8.606;2022-09-20T08:53:08;6.30;;;4.00;;
4808;SDS011;2418;49.930;8.606;2022-09-20T08:55:37;8.40;;;3.80;;
4808;SDS011;2418;49.930;8.606;2022-09-20T08:58:07;10.70;;;4.40;;
4808;SDS011;2418;49.930;8.606;2022-09-20T09:00:35;5.25;;;3.80;;
4808;SDS011;2418;49.930;8.606;2022-09-20T09:03:03;8.93;;;4.10;;
4808;SDS011;2418;49.930;8.606;2022-09-20T09:05:43;7.38;;;2.90;;
4808;SDS011;2418;49.930;8.606;2022-09-20T09:08:10;5.20;;;3.08;;
4808;SDS011;2418;49.930;8.606;2022-09-20T09:13:25;7.32;;;3.30;;
4808;SDS011;2418;49.930;8.606;2022-09-20T09:15:54;5.80;;;3.25;;
4808;SDS011;2418;49.930;8.606;2022-09-20T09:18:24;5.68;;;3.45;;
4808;SDS011;2418;49.930;8.606;2022-09-20T09:20:53;5.43;;;3.30;;
4808;SDS011;2418;49.930;8.606;2022-09-20T09:23:21;5.77;;;3.30;;
4808;SDS011;2418;49.930;8.606;2022-09-20T09:25:49;3.70;;;3.40;;
4808;SDS011;2418;49.930;8.606;2022-09-20T09:28:16;4.60;;;3.45;;
4808;SDS011;2418;49.930;8.606;2022-09-20T09:30:45;9.10;;;3.90;;
4808;SDS011;2418;49.930;8.606;2022-09-20T09:35:40;6.22;;;4.00;;
4808;SDS011;2418;49.930;8.606;2022-09-20T09:38:10;8.07;;;4.65;;
4808;SDS011;2418;49.930;8.606;2022-09-20T09:40:48;6.95;;;3.25;;
4808;SDS011;2418;49.930;8.606;2022-09-20T09:43:24;2.70;;;2.50;;
4808;SDS011;2418;49.930;8.606;2022-09-20T09:45:52;6.88;;;2.90;;
4808;SDS011;2418;49.930;8.606;2022-09-20T09:48:26;3.95;;;2.25;;
4808;SDS011;2418;49.930;8.606;2022-09-20T09:51:06;6.07;;;2.65;;
4808;SDS011;2418;49.930;8.606;2022-09-20T09:53:32;3.45;;;2.30;;
4808;SDS011;2418;49.930;8.606;2022-09-20T09:56:04;4.78;;;2.10;;
4808;SDS011;2418;49.930;8.606;2022-09-20T10:00:59;9.70;;;2.22;;
4808;SDS011;2418;49.930;8.606;2022-09-20T10:06:13;5.25;;;2.13;;
4808;SDS011;2418;49.930;8.606;2022-09-20T10:22:34;3.55;;;1.67;;
4808;SDS011;2418;49.930;8.606;2022-09-20T10:30:21;1.67;;;1.23;;
4808;SDS011;2418;49.930;8.606;2022-09-20T10:40:35;4.80;;;1.77;;
4808;SDS011;2418;49.930;8.606;2022-09-20T10:46:04;6.90;;;2.00;;
4808;SDS011;2418;49.930;8.606;2022-09-20T10:51:03;2.25;;;1.40;;
4808;SDS011;2418;49.930;8.606;2022-09-20T10:53:41;4.10;;;1.40;;
4808;SDS011;2418;49.930;8.606;2022-09-20T10:56:25;3.20;;;1.40;;
4808;SDS011;2418;49.930;8.606;2022-09-20T10:58:59;4.20;;;2.60;;
4808;SDS011;2418;49.930;8.606;2022-09-20T11:04:57;4.53;;;2.93;;
4808;SDS011;2418;49.930;8.606;2022-09-20T11:09:33;4.18;;;3.28;;
4808;SDS011;2418;49.930;8.606;2022-09-20T11:12:15;4.60;;;3.10;;
4808;SDS011;2418;49.930;8.606;2022-09-20T11:14:47;13.57;;;3.70;;
4808;SDS011;2418;49.930;8.606;2022-09-20T11:17:23;5.30;;;3.30;;
4808;SDS011;2418;49.930;8.606;2022-09-20T11:22:26;5.18;;;2.45;;
4808;SDS011;2418;49.930;8.606;2022-09-20T11:24:57;2.50;;;1.90;;
4808;SDS011;2418;49.930;8.606;2022-09-20T11:27:54;3.50;;;2.10;;
4808;SDS011;2418;49.930;8.606;2022-09-20T11:30:22;3.53;;;1.50;;
4808;SDS011;2418;49.930;8.606;2022-09-20T11:35:34;1.98;;;1.88;;
4808;SDS011;2418;49.930;8.606;2022-09-20T11:40:35;3.83;;;2.20;;
4808;SDS011;2418;49.930;8.606;2022-09-20T11:43:03;7.23;;;1.83;;
4808;SDS011;2418;49.930;8.606;2022-09-20T11:45:30;4.82;;;1.85;;
4808;SDS011;2418;49.930;8.606;2022-09-20T11:48:00;1.77;;;1.70;;
4808;SDS011;2418;49.930;8.606;2022-09-20T11:50:36;2.85;;;1.70;;
4808;SDS011;2418;49.930;8.606;2022-09-20T11:57:59;3.10;;;1.40;;
4808;SDS011;2418;49.930;8.606;2022-09-20T12:00:30;5.68;;;1.80;;
4808;SDS011;2418;49.930;8.606;2022-09-20T12:02:56;2.40;;;2.30;;
4808;SDS011;2418;49.930;8.606;2022-09-20T12:05:30;2.80;;;1.70;;
4808;SDS011;2418;49.930;8.606;2022-09-20T12:07:58;3.75;;;2.00;;
4808;SDS011;2418;49.930;8.606;2022-09-20T12:10:27;3.00;;;2.40;;
4808;SDS011;2418;49.930;8.606;2022-09-20T12:12:55;2.67;;;2.08;;
4808;SDS011;2418;49.930;8.606;2022-09-20T12:15:35;2.63;;;2.35;;
4808;SDS011;2418;49.930;8.606;2022-09-20T12:28:44;2.42;;;2.25;;
4808;SDS011;2418;49.930;8.606;2022-09-20T12:33:57;5.53;;;2.70;;
4808;SDS011;2418;49.930;8.606;2022-09-20T12:36:23;2.83;;;2.17;;
4808;SDS011;2418;49.930;8.606;2022-09-20T12:39:35;5.00;;;1.90;;
4808;SDS011;2418;49.930;8.606;2022-09-20T12:41:46;5.13;;;1.75;;
4808;SDS011;2418;49.930;8.606;2022-09-20T12:49:30;3.88;;;1.52;;
4808;SDS011;2418;49.930;8.606;2022-09-20T12:52:59;2.83;;;1.33;;
4808;SDS011;2418;49.930;8.606;2022-09-20T12:58:00;1.83;;;1.73;;
4808;SDS011;2418;49.930;8.606;2022-09-20T13:00:32;4.10;;;1.73;;
4808;SDS011;2418;49.930;8.606;2022-09-20T13:03:00;3.42;;;1.60;;
4808;SDS011;2418;49.930;8.606;2022-09-20T13:05:39;5.07;;;1.90;;
4808;SDS011;2418;49.930;8.606;2022-09-20T13:08:09;2.47;;;2.00;;
4808;SDS011;2418;49.930;8.606;2022-09-20T13:10:47;2.67;;;2.25;;
4808;SDS011;2418;49.930;8.606;2022-09-20T13:13:22;3.97;;;1.65;;
4808;SDS011;2418;49.930;8.606;2022-09-20T13:15:50;2.95;;;1.80;;
4808;SDS011;2418;49.930;8.606;2022-09-20T13:18:17;1.77;;;1.67;;
4808;SDS011;2418;49.930;8.606;2022-09-20T13:20:44;3.87;;;2.10;;
4808;SDS011;2418;49.930;8.606;2022-09-20T13:23:17;8.02;;;2.00;;
4808;SDS011;2418;49.930;8.606;2022-09-20T13:25:44;3.00;;;2.80;;
4808;SDS011;2418;49.930;8.606;2022-09-20T13:28:20;3.80;;;2.07;;
4808;SDS011;2418;49.930;8.606;2022-09-20T13:30:49;5.75;;;2.33;;
4808;SDS011;2418;49.930;8.606;2022-09-20T13:33:23;5.90;;;2.13;;
4808;SDS011;2418;49.930;8.606;2022-09-20T13:35:52;2.60;;;2.40;;
4808;SDS011;2418;49.930;8.606;2022-09-20T13:38:21;5.43;;;2.30;;
4808;SDS011;2418;49.930;8.606;2022-09-20T13:40:49;4.43;;;2.30;;
4808;SDS011;2418;49.930;8.606;2022-09-20T13:45:47;2.77;;;2.57;;
4808;SDS011;2418;49.930;8.606;2022-09-20T13:48:16;3.95;;;3.10;;
4808;SDS011;2418;49.930;8.606;2022-09-20T13:50:42;6.43;;;3.20;;
4808;SDS011;2418;49.930;8.606;2022-09-20T13:53:14;3.03;;;2.90;;
4808;SDS011;2418;49.930;8.606;2022-09-20T13:55:41;3.47;;;3.10;;
4808;SDS011;2418;49.930;8.606;2022-09-20T13:58:23;3.88;;;2.90;;
4808;SDS011;2418;49.930;8.606;2022-09-20T14:03:16;4.90;;;2.90;;
4808;SDS011;2418;49.930;8.606;2022-09-20T14:05:47;6.30;;;2.80;;
4808;SDS011;2418;49.930;8.606;2022-09-20T14:08:16;2.70;;;2.30;;
4808;SDS011;2418;49.930;8.606;2022-09-20T14:10:44;3.70;;;2.70;;
4808;SDS011;2418;49.930;8.606;2022-09-20T14:13:13;5.80;;;3.20;;
4808;SDS011;2418;49.930;8.606;2022-09-20T14:15:41;8.85;;;3.00;;
4808;SDS011;2418;49.930;8.606;2022-09-20T14:18:10;5.90;;;2.50;;
4808;SDS011;2418;49.930;8.606;2022-09-20T14:20:39;3.55;;;2.40;;
4808;SDS011;2418;49.930;8.606;2022-09-20T14:23:15;3.90;;;2.70;;
4808;SDS011;2418;49.930;8.606;2022-09-20T14:25:43;2.58;;;2.47;;
4808;SDS011;2418;49.930;8.606;2022-09-20T14:28:28;2.05;;;2.05;;
4808;SDS011;2418;49.930;8.606;2022-09-20T14:31:02;3.08;;;2.50;;
4808;SDS011;2418;49.930;8.606;2022-09-20T14:33:30;3.60;;;2.40;;
4808;SDS011;2418;49.930;8.606;2022-09-20T14:35:56;2.92;;;2.53;;
4808;SDS011;2418;49.930;8.606;2022-09-20T14:38:23;5.50;;;2.50;;
4808;SDS011;2418;49.930;8.606;2022-09-20T14:40:50;7.53;;;2.75;;
4808;SDS011;2418;49.930;8.606;2022-09-20T14:43:34;9.20;;;2.50;;
4808;SDS011;2418;49.930;8.606;2022-09-20T14:46:02;2.47;;;2.28;;
4808;SDS011;2418;49.930;8.606;2022-09-20T14:53:36;3.25;;;2.70;;
4808;SDS011;2418;49.930;8.606;2022-09-20T14:58:32;4.50;;;3.10;;
4808;SDS011;2418;49.930;8.606;2022-09-20T15:01:02;3.70;;;2.78;;
4808;SDS011;2418;49.930;8.606;2022-09-20T15:03:39;4.32;;;1.80;;
4808;SDS011;2418;49.930;8.606;2022-09-20T15:06:08;2.40;;;2.20;;
4808;SDS011;2418;49.930;8.606;2022-09-20T15:08:34;2.80;;;2.60;;
4808;SDS011;2418;49.930;8.606;2022-09-20T15:11:01;2.33;;;1.90;;
4808;SDS011;2418;49.930;8.606;2022-09-20T15:13:27;2.70;;;1.60;;
4808;SDS011;2418;49.930;8.606;2022-09-20T15:15:53;1.50;;;1.50;;
4808;SDS011;2418;49.930;8.606;2022-09-20T15:18:20;4.78;;;1.70;;
4808;SDS011;2418;49.930;8.606;2022-09-20T15:20:47;1.30;;;1.17;;
4808;SDS011;2418;49.930;8.606;2022-09-20T15:23:13;3.00;;;1.30;;
4808;SDS011;2418;49.930;8.606;2022-09-20T15:25:39;1.40;;;1.40;;
4808;SDS011;2418;49.930;8.606;2022-09-20T15:28:05;2.50;;;1.30;;
4808;SDS011;2418;49.930;8.606;2022-09-20T15:30:31;1.88;;;1.10;;
4808;SDS011;2418;49.930;8.606;2022-09-20T15:32:58;4.30;;;1.17;;
4808;SDS011;2418;49.930;8.606;2022-09-20T15:35:24;2.90;;;1.00;;
4808;SDS011;2418;49.930;8.606;2022-09-20T15:37:50;1.50;;;1.40;;
4808;SDS011;2418;49.930;8.606;2022-09-20T15:40:16;1.20;;;1.20;;
4808;SDS011;2418;49.930;8.606;2022-09-20T15:42:42;1.13;;;1.13;;
4808;SDS011;2418;49.930;8.606;2022-09-20T15:45:10;4.05;;;1.20;;
4808;SDS011;2418;49.930;8.606;2022-09-20T15:47:37;1.00;;;0.90;;
4808;SDS011;2418;49.930;8.606;2022-09-20T15:50:04;1.45;;;1.30;;
4808;SDS011;2418;49.930;8.606;2022-09-20T15:52:35;1.02;;;1.02;;
4808;SDS011;2418;49.930;8.606;2022-09-20T15:55:04;1.10;;;1.00;;
4808;SDS011;2418;49.930;8.606;2022-09-20T15:57:31;3.70;;;1.35;;
4808;SDS011;2418;49.930;8.606;2022-09-20T15:59:58;1.30;;;1.20;;
4808;SDS011;2418;49.930;8.606;2022-09-20T16:02:24;1.13;;;1.00;;
4808;SDS011;2418;49.930;8.606;2022-09-20T16:04:50;1.45;;;1.00;;
4808;SDS011;2418;49.930;8.606;2022-09-20T16:07:20;2.40;;;1.10;;
4808;SDS011;2418;49.930;8.606;2022-09-20T16:09:52;2.30;;;1.20;;
4808;SDS011;2418;49.930;8.606;2022-09-20T16:12:20;1.38;;;0.93;;
4808;SDS011;2418;49.930;8.606;2022-09-20T16:14:46;0.80;;;0.80;;
4808;SDS011;2418;49.930;8.606;2022-09-20T16:17:12;3.90;;;0.73;;
4808;SDS011;2418;49.930;8.606;2022-09-20T16:19:38;2.00;;;0.73;;
4808;SDS011;2418;49.930;8.606;2022-09-20T16:22:05;1.17;;;1.10;;
4808;SDS011;2418;49.930;8.606;2022-09-20T16:24:32;2.30;;;0.80;;
4808;SDS011;2418;49.930;8.606;2022-09-20T16:26:59;0.80;;;0.80;;
4808;SDS011;2418;49.930;8.606;2022-09-20T16:29:25;2.70;;;0.70;;
4808;SDS011;2418;49.930;8.606;2022-09-20T16:31:53;2.60;;;0.60;;
4808;SDS011;2418;49.930;8.606;2022-09-20T16:34:34;1.20;;;0.70;;
4808;SDS011;2418;49.930;8.606;2022-09-20T16:37:01;6.10;;;0.80;;
4808;SDS011;2418;49.930;8.606;2022-09-20T16:39:28;0.85;;;0.52;;
4808;SDS011;2418;49.930;8.606;2022-09-20T16:41:56;0.70;;;0.70;;
4808;SDS011;2418;49.930;8.606;2022-09-20T16:44:24;0.60;;;0.60;;
4808;SDS011;2418;49.930;8.606;2022-09-20T16:46:51;1.00;;;0.80;;
4808;SDS011;2418;49.930;8.606;2022-09-20T16:49:16;3.70;;;0.85;;
4808;SDS011;2418;49.930;8.606;2022-09-20T16:51:43;0.82;;;0.82;;
4808;SDS011;2418;49.930;8.606;2022-09-20T16:54:11;2.42;;;0.70;;
4808;SDS011;2418;49.930;8.606;2022-09-20T16:56:41;2.50;;;0.80;;
4808;SDS011;2418;49.930;8.606;2022-09-20T16:59:08;0.80;;;0.70;;
4808;SDS011;2418;49.930;8.606;2022-09-20T17:01:35;1.00;;;0.70;;
4808;SDS011;2418;49.930;8.606;2022-09-20T17:04:02;3.05;;;0.80;;
4808;SDS011;2418;49.930;8.606;2022-09-20T17:06:31;1.17;;;0.70;;
4808;SDS011;2418;49.930;8.606;2022-09-20T17:08:58;2.47;;;0.77;;
4808;SDS011;2418;49.930;8.606;2022-09-20T17:11:26;0.90;;;0.90;;
4808;SDS011;2418;49.930;8.606;2022-09-20T17:13:53;1.20;;;0.80;;
4808;SDS011;2418;49.930;8.606;2022-09-20T17:16:26;2.40;;;0.90;;
4808;SDS011;2418;49.930;8.606;2022-09-20T17:18:52;1.00;;;1.00;;
4808;SDS011;2418;49.930;8.606;2022-09-20T17:21:22;5.85;;;1.08;;
4808;SDS011;2418;49.930;8.606;2022-09-20T17:23:49;2.20;;;1.00;;
4808;SDS011;2418;49.930;8.606;2022-09-20T17:26:20;2.10;;;1.17;;
4808;SDS011;2418;49.930;8.606;2022-09-20T17:28:47;0.80;;;0.80;;
4808;SDS011;2418;49.930;8.606;2022-09-20T17:31:25;3.42;;;0.80;;
4808;SDS011;2418;49.930;8.606;2022-09-20T17:33:56;1.58;;;0.90;;
4808;SDS011;2418;49.930;8.606;2022-09-20T17:36:24;2.80;;;2.05;;
4808;SDS011;2418;49.930;8.606;2022-09-20T17:38:52;5.70;;;2.00;;
4808;SDS011;2418;49.930;8.606;2022-09-20T17:41:18;1.80;;;1.27;;
4808;SDS011;2418;49.930;8.606;2022-09-20T17:43:45;1.70;;;1.20;;
4808;SDS011;2418;49.930;8.606;2022-09-20T17:46:12;0.90;;;0.90;;
4808;SDS011;2418;49.930;8.606;2022-09-20T17:48:49;2.60;;;1.40;;
4808;SDS011;2418;49.930;8.606;2022-09-20T17:51:16;3.00;;;1.70;;
4808;SDS011;2418;49.930;8.606;2022-09-20T17:53:43;2.20;;;1.30;;
4808;SDS011;2418;49.930;8.606;2022-09-20T17:56:10;2.55;;;1.10;;
4808;SDS011;2418;49.930;8.606;2022-09-20T17:58:36;1.70;;;1.25;;
4808;SDS011;2418;49.930;8.606;2022-09-20T18:01:04;1.77;;;1.67;;
4808;SDS011;2418;49.930;8.606;2022-09-20T18:03:32;2.20;;;1.70;;
4808;SDS011;2418;49.930;8.606;2022-09-20T18:05:59;2.60;;;1.90;;
4808;SDS011;2418;49.930;8.606;2022-09-20T18:08:25;1.90;;;1.60;;
4808;SDS011;2418;49.930;8.606;2022-09-20T18:10:57;3.60;;;1.87;;
4808;SDS011;2418;49.930;8.606;2022-09-20T18:13:23;2.45;;;1.40;;
4808;SDS011;2418;49.930;8.606;2022-09-20T18:15:52;1.52;;;1.42;;
4808;SDS011;2418;49.930;8.606;2022-09-20T18:18:18;4.20;;;1.70;;
4808;SDS011;2418;49.930;8.606;2022-09-20T18:20:44;3.78;;;1.30;;
4808;SDS011;2418;49.930;8.606;2022-09-20T18:23:10;5.15;;;2.25;;
4808;SDS011;2418;49.930;8.606;2022-09-20T18:25:36;36.28;;;26.52;;
4808;SDS011;2418;49.930;8.606;2022-09-20T18:28:21;8.15;;;6.20;;
4808;SDS011;2418;49.930;8.606;2022-09-20T18:30:47;2.03;;;1.92;;
4808;SDS011;2418;49.930;8.606;2022-09-20T18:33:16;2.13;;;2.03;;
4808;SDS011;2418;49.930;8.606;2022-09-20T18:35:42;4.10;;;2.03;;
4808;SDS011;2418;49.930;8.606;2022-09-20T18:38:08;6.25;;;2.50;;
4808;SDS011;2418;49.930;8.606;2022-09-20T18:40:34;5.30;;;1.90;;
4808;SDS011;2418;49.930;8.606;2022-09-20T18:43:01;2.00;;;1.90;;
4808;SDS011;2418;49.930;8.606;2022-09-20T18:45:27;4.13;;;2.00;;
4808;SDS011;2418;49.930;8.606;2022-09-20T18:47:53;2.30;;;1.80;;
4808;SDS011;2418;49.930;8.606;2022-09-20T18:50:22;2.00;;;1.90;;
4808;SDS011;2418;49.930;8.606;2022-09-20T18:52:51;3.15;;;2.03;;
4808;SDS011;2418;49.930;8.606;2022-09-20T18:55:17;2.97;;;1.60;;
4808;SDS011;2418;49.930;8.606;2022-09-20T18:57:43;3.50;;;2.30;;
4808;SDS011;2418;49.930;8.606;2022-09-20T19:00:10;9.50;;;3.13;;
4808;SDS011;2418;49.930;8.606;2022-09-20T19:02:41;6.00;;;5.53;;
4808;SDS011;2418;49.930;8.606;2022-09-20T19:07:52;4.20;;;3.80;;
4808;SDS011;2418;49.930;8.606;2022-09-20T19:10:33;4.35;;;3.70;;
4808;SDS011;2418;49.930;8.606;2022-09-20T19:15:53;3.45;;;3.15;;
4808;SDS011;2418;49.930;8.606;2022-09-20T19:23:55;5.63;;;3.13;;
4808;SDS011;2418;49.930;8.606;2022-09-20T19:26:23;3.47;;;2.70;;
4808;SDS011;2418;49.930;8.606;2022-09-20T19:28:51;3.25;;;3.00;;
4808;SDS011;2418;49.930;8.606;2022-09-20T19:31:31;3.15;;;3.05;;
4808;SDS011;2418;49.930;8.606;2022-09-20T19:33:59;6.13;;;3.90;;
4808;SDS011;2418;49.930;8.606;2022-09-20T19:37:08;10.32;;;4.20;;
4808;SDS011;2418;49.930;8.606;2022-09-20T19:39:18;2.70;;;2.60;;
4808;SDS011;2418;49.930;8.606;2022-09-20T19:49:55;4.57;;;2.65;;
4808;SDS011;2418;49.930;8.606;2022-09-20T19:52:23;4.07;;;2.72;;
4808;SDS011;2418;49.930;8.606;2022-09-20T19:54:49;2.28;;;2.15;;
4808;SDS011;2418;49.930;8.606;2022-09-20T19:57:20;8.27;;;5.22;;
4808;SDS011;2418;49.930;8.606;2022-09-20T19:59:47;8.90;;;3.85;;
4808;SDS011;2418;49.930;8.606;2022-09-20T20:02:15;5.73;;;3.73;;
4808;SDS011;2418;49.930;8.606;2022-09-20T20:04:41;5.70;;;4.18;;
4808;SDS011;2418;49.930;8.606;2022-09-20T20:07:28;8.63;;;5.93;;
4808;SDS011;2418;49.930;8.606;2022-09-20T20:12:33;13.98;;;9.52;;
4808;SDS011;2418;49.930;8.606;2022-09-20T20:17:39;21.42;;;14.15;;
4808;SDS011;2418;49.930;8.606;2022-09-20T20:25:50;15.90;;;10.98;;
4808;SDS011;2418;49.930;8.606;2022-09-20T20:28:19;16.23;;;11.20;;
4808;SDS011;2418;49.930;8.606;2022-09-20T20:30:45;8.10;;;7.30;;
4808;SDS011;2418;49.930;8.606;2022-09-20T20:33:15;14.13;;;8.48;;
4808;SDS011;2418;49.930;8.606;2022-09-20T20:35:41;5.87;;;5.37;;
4808;SDS011;2418;49.930;8.606;2022-09-20T20:38:07;6.60;;;5.10;;
4808;SDS011;2418;49.930;8.606;2022-09-20T20:40:35;4.55;;;4.20;;
4808;SDS011;2418;49.930;8.606;2022-09-20T20:43:01;10.33;;;6.00;;